sensor_id;sensor_type;location;lat;lon;timestamp;pressure;altitude;pressure_sealevel;temperature;humidity
76122;BME280;70471;53.200;6.080;2023-07-29T00:03:55;100691.53;;;23.07;55.30
76122;BME280;70471;53.200;6.080;2023-07-29T00:08:46;100667.19;;;23.04;55.33
76122;BME280;70471;53.200;6.080;2023-07-29T00:13:39;100665.84;;;23.02;55.37
76122;BME280;70471;53.200;6.080;2023-07-29T00:18:31;100678.47;;;22.99;55.46
76122;BME280;70471;53.200;6.080;2023-07-29T00:23:23;100673.56;;;22.96;55.40
76122;BME280;70471;53.200;6.080;2023-07-29T00:28:14;100661.97;;;22.94;55.39
76122;BME280;70471;53.200;6.080;2023-07-29T00:33:07;100654.75;;;22.93;55.54
76122;BME280;70471;53.200;6.080;2023-07-29T00:37:58;100651.50;;;22.91;55.55
76122;BME280;70471;53.200;6.080;2023-07-29T00:42:50;100659.31;;;22.89;55.61
76122;BME280;70471;53.200;6.080;2023-07-29T00:47:42;100653.28;;;22.87;55.47
76122;BME280;70471;53.200;6.080;2023-07-29T00:52:35;100650.81;;;22.85;55.40
76122;BME280;70471;53.200;6.080;2023-07-29T00:57:27;100646.75;;;22.83;55.33
76122;BME280;70471;53.200;6.080;2023-07-29T01:02:20;100639.56;;;22.82;55.41
76122;BME280;70471;53.200;6.080;2023-07-29T01:07:21;100648.22;;;22.80;55.70
76122;BME280;70471;53.200;6.080;2023-07-29T01:12:21;100633.00;;;22.78;55.33
76122;BME280;70471;53.200;6.080;2023-07-29T01:17:17;100639.41;;;22.78;55.63
76122;BME280;70471;53.200;6.080;2023-07-29T01:22:13;100634.50;;;22.75;55.60
76122;BME280;70471;53.200;6.080;2023-07-29T01:27:06;100626.47;;;22.74;55.65
76122;BME280;70471;53.200;6.080;2023-07-29T01:32:02;100625.97;;;22.71;55.82
76122;BME280;70471;53.200;6.080;2023-07-29T01:36:55;100616.03;;;22.70;55.82
76122;BME280;70471;53.200;6.080;2023-07-29T01:41:48;100625.47;;;22.69;55.63
76122;BME280;70471;53.200;6.080;2023-07-29T01:46:43;100617.81;;;22.66;55.93
76122;BME280;70471;53.200;6.080;2023-07-29T01:51:35;100616.84;;;22.62;55.67
76122;BME280;70471;53.200;6.080;2023-07-29T01:56:26;100617.63;;;22.63;55.96
76122;BME280;70471;53.200;6.080;2023-07-29T02:01:18;100614.06;;;22.62;55.81
76122;BME280;70471;53.200;6.080;2023-07-29T02:06:11;100612.41;;;22.61;55.84
76122;BME280;70471;53.200;6.080;2023-07-29T02:11:02;100604.06;;;22.52;55.90
76122;BME280;70471;53.200;6.080;2023-07-29T02:15:54;100614.19;;;22.57;55.78
76122;BME280;70471;53.200;6.080;2023-07-29T02:20:46;100604.25;;;22.56;55.86
76122;BME280;70471;53.200;6.080;2023-07-29T02:25:40;100610.44;;;22.53;55.91
76122;BME280;70471;53.200;6.080;2023-07-29T02:30:32;100604.06;;;22.52;55.89
76122;BME280;70471;53.200;6.080;2023-07-29T02:35:23;100606.34;;;22.50;55.81
76122;BME280;70471;53.200;6.080;2023-07-29T02:40:15;100605.53;;;22.50;55.82
76122;BME280;70471;53.200;6.080;2023-07-29T02:45:08;100608.63;;;22.48;55.57
76122;BME280;70471;53.200;6.080;2023-07-29T02:50:01;100603.69;;;22.45;55.93
76122;BME280;70471;53.200;6.080;2023-07-29T02:54:53;100597.34;;;22.45;55.84
76122;BME280;70471;53.200;6.080;2023-07-29T02:59:44;100592.91;;;22.44;55.72
76122;BME280;70471;53.200;6.080;2023-07-29T03:04:37;100583.59;;;22.40;55.61
76122;BME280;70471;53.200;6.080;2023-07-29T03:09:28;100586.69;;;22.38;55.41
76122;BME280;70471;53.200;6.080;2023-07-29T03:14:20;100584.25;;;22.36;55.78
76122;BME280;70471;53.200;6.080;2023-07-29T03:19:12;100585.72;;;22.34;55.60
76122;BME280;70471;53.200;6.080;2023-07-29T03:24:05;100586.03;;;22.32;55.62
76122;BME280;70471;53.200;6.080;2023-07-29T03:28:57;100585.22;;;22.32;55.72
76122;BME280;70471;53.200;6.080;2023-07-29T03:33:48;100586.38;;;22.31;55.38
76122;BME280;70471;53.200;6.080;2023-07-29T03:38:40;100578.38;;;22.29;55.36
76122;BME280;70471;53.200;6.080;2023-07-29T03:43:33;100577.53;;;22.29;55.60
76122;BME280;70471;53.200;6.080;2023-07-29T03:48:24;100569.53;;;22.27;55.18
76122;BME280;70471;53.200;6.080;2023-07-29T03:53:16;100565.28;;;22.21;55.42
76122;BME280;70471;53.200;6.080;2023-07-29T03:58:07;100560.22;;;22.23;55.48
76122;BME280;70471;53.200;6.080;2023-07-29T04:03:00;100561.34;;;22.22;55.58
76122;BME280;70471;53.200;6.080;2023-07-29T04:07:53;100558.91;;;22.21;54.91
76122;BME280;70471;53.200;6.080;2023-07-29T04:12:45;100563.66;;;22.20;55.23
76122;BME280;70471;53.200;6.080;2023-07-29T04:17:36;100559.22;;;22.19;55.02
76122;BME280;70471;53.200;6.080;2023-07-29T04:22:29;100559.88;;;22.16;55.34
76122;BME280;70471;53.200;6.080;2023-07-29T04:27:20;100554.66;;;22.14;55.39
76122;BME280;70471;53.200;6.080;2023-07-29T04:32:12;100558.56;;;22.13;55.24
76122;BME280;70471;53.200;6.080;2023-07-29T04:37:04;100555.94;;;22.08;55.16
76122;BME280;70471;53.200;6.080;2023-07-29T04:41:56;100563.94;;;22.10;54.82
76122;BME280;70471;53.200;6.080;2023-07-29T04:46:48;100555.75;;;22.05;55.07
76122;BME280;70471;53.200;6.080;2023-07-29T04:51:39;100561.84;;;22.07;55.11
76122;BME280;70471;53.200;6.080;2023-07-29T04:56:31;100564.59;;;22.07;54.90
76122;BME280;70471;53.200;6.080;2023-07-29T05:01:24;100557.88;;;21.99;55.27
76122;BME280;70471;53.200;6.080;2023-07-29T05:06:15;100555.28;;;22.03;55.20
76122;BME280;70471;53.200;6.080;2023-07-29T05:11:07;100557.56;;;22.01;55.06
76122;BME280;70471;53.200;6.080;2023-07-29T05:15:58;100557.56;;;22.01;55.26
76122;BME280;70471;53.200;6.080;2023-07-29T05:20:51;100546.28;;;21.97;55.06
76122;BME280;70471;53.200;6.080;2023-07-29T05:25:42;100554.59;;;21.97;55.05
76122;BME280;70471;53.200;6.080;2023-07-29T05:30:34;100551.00;;;21.96;55.31
76122;BME280;70471;53.200;6.080;2023-07-29T05:35:27;100559.66;;;21.95;55.11
76122;BME280;70471;53.200;6.080;2023-07-29T05:40:20;100559.97;;;21.93;55.41
76122;BME280;70471;53.200;6.080;2023-07-29T05:45:11;100574.97;;;21.92;55.09
76122;BME280;70471;53.200;6.080;2023-07-29T05:50:03;100576.44;;;21.90;55.20
76122;BME280;70471;53.200;6.080;2023-07-29T05:54:55;100583.44;;;21.87;55.13
76122;BME280;70471;53.200;6.080;2023-07-29T05:59:48;100581.00;;;21.86;55.25
76122;BME280;70471;53.200;6.080;2023-07-29T06:04:39;100582.97;;;21.85;55.41
76122;BME280;70471;53.200;6.080;2023-07-29T06:09:30;100584.53;;;21.77;55.45
76122;BME280;70471;53.200;6.080;2023-07-29T06:14:22;100583.09;;;21.80;55.50
76122;BME280;70471;53.200;6.080;2023-07-29T06:19:15;100579.19;;;21.81;55.41
76122;BME280;70471;53.200;6.080;2023-07-29T06:24:06;100583.50;;;21.73;55.76
76122;BME280;70471;53.200;6.080;2023-07-29T06:28:57;100580.56;;;21.70;56.23
76122;BME280;70471;53.200;6.080;2023-07-29T06:33:49;100575.66;;;21.67;56.27
76122;BME280;70471;53.200;6.080;2023-07-29T06:38:42;100581.19;;;21.58;56.45
76122;BME280;70471;53.200;6.080;2023-07-29T06:43:33;100578.72;;;21.56;56.63
76122;BME280;70471;53.200;6.080;2023-07-29T06:48:24;100584.44;;;21.60;56.59
76122;BME280;70471;53.200;6.080;2023-07-29T06:53:16;100587.06;;;21.65;56.24
76122;BME280;70471;53.200;6.080;2023-07-29T06:58:09;100572.88;;;21.67;56.93
76122;BME280;70471;53.200;6.080;2023-07-29T07:03:01;100579.94;;;21.73;57.15
76122;BME280;70471;53.200;6.080;2023-07-29T07:07:52;100576.03;;;21.74;56.56
76122;BME280;70471;53.200;6.080;2023-07-29T07:12:44;100588.41;;;21.76;56.93
76122;BME280;70471;53.200;6.080;2023-07-29T07:17:36;100586.19;;;21.78;56.47
76122;BME280;70471;53.200;6.080;2023-07-29T07:22:28;100586.50;;;21.77;56.25
76122;BME280;70471;53.200;6.080;2023-07-29T07:27:19;100577.97;;;21.73;56.46
76122;BME280;70471;53.200;6.080;2023-07-29T07:32:11;100587.13;;;21.74;56.29
76122;BME280;70471;53.200;6.080;2023-07-29T07:37:04;100582.88;;;21.76;56.42
76122;BME280;70471;53.200;6.080;2023-07-29T07:41:55;100587.00;;;21.79;56.24
76122;BME280;70471;53.200;6.080;2023-07-29T07:46:47;100583.28;;;21.84;56.18
76122;BME280;70471;53.200;6.080;2023-07-29T07:51:38;100596.50;;;21.87;55.98
76122;BME280;70471;53.200;6.080;2023-07-29T07:56:31;100603.34;;;21.89;55.89
76122;BME280;70471;53.200;6.080;2023-07-29T08:01:22;100600.56;;;21.89;56.07
76122;BME280;70471;53.200;6.080;2023-07-29T08:06:14;100605.00;;;21.90;56.30
76122;BME280;70471;53.200;6.080;2023-07-29T08:11:05;100607.94;;;21.94;56.30
76122;BME280;70471;53.200;6.080;2023-07-29T08:15:58;100587.72;;;21.93;56.01
76122;BME280;70471;53.200;6.080;2023-07-29T08:20:53;100594.91;;;21.94;56.11
76122;BME280;70471;53.200;6.080;2023-07-29T08:25:51;100602.06;;;21.95;56.02
76122;BME280;70471;53.200;6.080;2023-07-29T08:30:42;100604.22;;;21.98;55.98
76122;BME280;70471;53.200;6.080;2023-07-29T08:35:35;100615.81;;;22.01;56.38
76122;BME280;70471;53.200;6.080;2023-07-29T08:40:29;100611.91;;;22.02;55.84
76122;BME280;70471;53.200;6.080;2023-07-29T08:45:21;100609.63;;;22.04;55.94
76122;BME280;70471;53.200;6.080;2023-07-29T08:50:13;100615.19;;;22.04;56.10
76122;BME280;70471;53.200;6.080;2023-07-29T08:55:07;100600.16;;;22.05;55.97
76122;BME280;70471;53.200;6.080;2023-07-29T09:00:00;100606.38;;;22.10;55.78
76122;BME280;70471;53.200;6.080;2023-07-29T09:04:53;100596.59;;;22.13;55.98
76122;BME280;70471;53.200;6.080;2023-07-29T09:09:44;100604.59;;;22.14;55.78
76122;BME280;70471;53.200;6.080;2023-07-29T09:14:37;100607.88;;;22.16;56.04
76122;BME280;70471;53.200;6.080;2023-07-29T09:19:32;100604.78;;;22.18;55.86
76122;BME280;70471;53.200;6.080;2023-07-29T09:24:24;100608.06;;;22.20;55.65
76122;BME280;70471;53.200;6.080;2023-07-29T09:29:22;100611.31;;;22.22;55.49
76122;BME280;70471;53.200;6.080;2023-07-29T09:34:15;100604.94;;;22.22;55.85
76122;BME280;70471;53.200;6.080;2023-07-29T09:39:11;100611.16;;;22.27;55.95
76122;BME280;70471;53.200;6.080;2023-07-29T09:44:04;100610.03;;;22.28;55.89
76122;BME280;70471;53.200;6.080;2023-07-29T09:48:56;100606.94;;;22.30;55.85
76122;BME280;70471;53.200;6.080;2023-07-29T09:53:51;100605.78;;;22.31;55.62
76122;BME280;70471;53.200;6.080;2023-07-29T09:58:43;100596.00;;;22.33;55.63
76122;BME280;70471;53.200;6.080;2023-07-29T10:03:35;100612.00;;;22.36;55.47
76122;BME280;70471;53.200;6.080;2023-07-29T10:08:28;100610.38;;;22.35;55.72
76122;BME280;70471;53.200;6.080;2023-07-29T10:13:22;100597.00;;;22.38;55.48
76122;BME280;70471;53.200;6.080;2023-07-29T10:18:16;100604.66;;;22.41;55.56
76122;BME280;70471;53.200;6.080;2023-07-29T10:23:08;100607.13;;;22.42;55.32
76122;BME280;70471;53.200;6.080;2023-07-29T10:28:05;100595.69;;;22.44;55.56
76122;BME280;70471;53.200;6.080;2023-07-29T10:32:59;100606.19;;;22.47;55.48
76122;BME280;70471;53.200;6.080;2023-07-29T10:37:53;100606.19;;;22.47;55.52
76122;BME280;70471;53.200;6.080;2023-07-29T10:42:59;100608.81;;;22.52;55.73
76122;BME280;70471;53.200;6.080;2023-07-29T10:47:51;100602.09;;;22.62;55.87
76122;BME280;70471;53.200;6.080;2023-07-29T10:52:49;100598.72;;;22.74;55.53
76122;BME280;70471;53.200;6.080;2023-07-29T10:57:45;100594.78;;;22.83;55.33
76122;BME280;70471;53.200;6.080;2023-07-29T11:02:37;100592.16;;;22.87;55.29
76122;BME280;70471;53.200;6.080;2023-07-29T11:07:31;100597.72;;;22.87;55.42
76122;BME280;70471;53.200;6.080;2023-07-29T11:12:42;100595.41;;;22.89;55.45
76122;BME280;70471;53.200;6.080;2023-07-29T11:17:37;100611.44;;;22.92;55.09
76122;BME280;70471;53.200;6.080;2023-07-29T11:22:30;100623.53;;;22.96;55.15
76122;BME280;70471;53.200;6.080;2023-07-29T11:27:22;100638.06;;;23.02;55.00
76122;BME280;70471;53.200;6.080;2023-07-29T11:32:15;100647.72;;;23.04;54.92
76122;BME280;70471;53.200;6.080;2023-07-29T11:37:10;100660.97;;;23.07;54.68
76122;BME280;70471;53.200;6.080;2023-07-29T11:42:02;100650.34;;;23.10;54.86
76122;BME280;70471;53.200;6.080;2023-07-29T11:46:54;100648.06;;;23.12;54.56
76122;BME280;70471;53.200;6.080;2023-07-29T11:51:47;100638.94;;;23.20;54.18
76122;BME280;70471;53.200;6.080;2023-07-29T11:56:38;100644.66;;;23.23;54.11
76122;BME280;70471;53.200;6.080;2023-07-29T12:01:30;100654.13;;;23.22;54.18
76122;BME280;70471;53.200;6.080;2023-07-29T12:06:22;100646.78;;;23.18;54.08
76122;BME280;70471;53.200;6.080;2023-07-29T12:11:16;100649.91;;;23.16;53.73
76122;BME280;70471;53.200;6.080;2023-07-29T12:16:07;100648.41;;;23.19;53.69
76122;BME280;70471;53.200;6.080;2023-07-29T12:20:59;100655.25;;;23.13;54.06
76122;BME280;70471;53.200;6.080;2023-07-29T12:25:51;100658.03;;;23.13;53.94
76122;BME280;70471;53.200;6.080;2023-07-29T12:30:44;100655.78;;;23.15;53.61
76122;BME280;70471;53.200;6.080;2023-07-29T12:35:36;100654.63;;;23.16;53.91
76122;BME280;70471;53.200;6.080;2023-07-29T12:40:28;100651.31;;;23.14;54.09
76122;BME280;70471;53.200;6.080;2023-07-29T12:45:19;100654.09;;;23.14;54.22
76122;BME280;70471;53.200;6.080;2023-07-29T12:50:14;100649.69;;;23.13;53.97
76122;BME280;70471;53.200;6.080;2023-07-29T12:55:06;100652.13;;;23.14;54.32
76122;BME280;70471;53.200;6.080;2023-07-29T13:00:04;100654.63;;;23.16;54.21
76122;BME280;70471;53.200;6.080;2023-07-29T13:04:55;100649.56;;;23.18;54.28
76122;BME280;70471;53.200;6.080;2023-07-29T13:09:48;100662.31;;;23.19;54.08
76122;BME280;70471;53.200;6.080;2023-07-29T13:14:39;100659.19;;;23.20;54.28
76122;BME280;70471;53.200;6.080;2023-07-29T13:19:31;100658.22;;;23.25;54.06
76122;BME280;70471;53.200;6.080;2023-07-29T13:24:22;100652.00;;;23.28;53.92
76122;BME280;70471;53.200;6.080;2023-07-29T13:29:15;100658.03;;;23.30;53.86
76122;BME280;70471;53.200;6.080;2023-07-29T13:34:07;100653.00;;;23.32;53.82
76122;BME280;70471;53.200;6.080;2023-07-29T13:38:58;100657.91;;;23.35;53.94
76122;BME280;70471;53.200;6.080;2023-07-29T13:43:49;100657.25;;;23.38;53.90
76122;BME280;70471;53.200;6.080;2023-07-29T13:48:42;100664.25;;;23.44;53.61
76122;BME280;70471;53.200;6.080;2023-07-29T13:53:34;100666.69;;;23.46;53.70
76122;BME280;70471;53.200;6.080;2023-07-29T13:58:25;100664.75;;;23.47;53.49
76122;BME280;70471;53.200;6.080;2023-07-29T14:03:17;100660.78;;;23.48;53.46
76122;BME280;70471;53.200;6.080;2023-07-29T14:08:09;100667.34;;;23.52;53.46
76122;BME280;70471;53.200;6.080;2023-07-29T14:13:01;100677.16;;;23.58;53.30
76122;BME280;70471;53.200;6.080;2023-07-29T14:17:52;100677.63;;;23.60;53.28
76122;BME280;70471;53.200;6.080;2023-07-29T14:22:44;100684.84;;;23.61;53.27
76122;BME280;70471;53.200;6.080;2023-07-29T14:27:36;100678.63;;;23.64;53.23
76122;BME280;70471;53.200;6.080;2023-07-29T14:32:28;100681.53;;;23.68;53.00
76122;BME280;70471;53.200;6.080;2023-07-29T14:37:20;100684.00;;;23.69;52.92
76122;BME280;70471;53.200;6.080;2023-07-29T14:42:12;100678.09;;;23.71;53.16
76122;BME280;70471;53.200;6.080;2023-07-29T14:47:07;100683.34;;;23.72;53.19
76122;BME280;70471;53.200;6.080;2023-07-29T14:51:59;100687.59;;;23.78;52.74
76122;BME280;70471;53.200;6.080;2023-07-29T14:56:50;100697.44;;;23.85;52.85
76122;BME280;70471;53.200;6.080;2023-07-29T15:01:41;100687.91;;;23.86;52.68
76122;BME280;70471;53.200;6.080;2023-07-29T15:06:34;100684.13;;;23.90;52.46
76122;BME280;70471;53.200;6.080;2023-07-29T15:11:26;100690.34;;;23.96;53.01
76122;BME280;70471;53.200;6.080;2023-07-29T15:16:17;100670.22;;;23.99;52.48
76122;BME280;70471;53.200;6.080;2023-07-29T15:21:09;100680.00;;;24.05;52.01
76122;BME280;70471;53.200;6.080;2023-07-29T15:26:01;100673.91;;;24.12;51.93
76122;BME280;70471;53.200;6.080;2023-07-29T15:30:53;100677.84;;;24.11;52.13
76122;BME280;70471;53.200;6.080;2023-07-29T15:35:44;100669.03;;;24.09;52.43
76122;BME280;70471;53.200;6.080;2023-07-29T15:40:37;100672.47;;;24.06;52.38
76122;BME280;70471;53.200;6.080;2023-07-29T15:45:30;100673.78;;;24.08;52.11
76122;BME280;70471;53.200;6.080;2023-07-29T15:50:21;100662.94;;;24.15;52.14
76122;BME280;70471;53.200;6.080;2023-07-29T15:55:13;100667.03;;;24.18;52.37
76122;BME280;70471;53.200;6.080;2023-07-29T16:00:05;100674.38;;;24.23;51.82
76122;BME280;70471;53.200;6.080;2023-07-29T16:04:58;100656.16;;;24.25;52.02
76122;BME280;70471;53.200;6.080;2023-07-29T16:09:50;100656.81;;;24.31;51.71
76122;BME280;70471;53.200;6.080;2023-07-29T16:14:41;100657.75;;;24.35;51.77
76122;BME280;70471;53.200;6.080;2023-07-29T16:19:51;100657.06;;;24.38;51.77
76122;BME280;70471;53.200;6.080;2023-07-29T16:24:45;100651.84;;;24.37;51.86
76122;BME280;70471;53.200;6.080;2023-07-29T16:29:36;100654.50;;;24.33;51.93
76122;BME280;70471;53.200;6.080;2023-07-29T16:34:27;100655.16;;;24.30;51.89
76122;BME280;70471;53.200;6.080;2023-07-29T16:39:19;100659.44;;;24.27;51.76
76122;BME280;70471;53.200;6.080;2023-07-29T16:44:12;100651.44;;;24.26;50.54
76122;BME280;70471;53.200;6.080;2023-07-29T16:49:03;100652.69;;;24.37;50.70
76122;BME280;70471;53.200;6.080;2023-07-29T16:53:55;100660.03;;;24.42;50.53
76122;BME280;70471;53.200;6.080;2023-07-29T16:58:46;100655.44;;;24.46;50.88
76122;BME280;70471;53.200;6.080;2023-07-29T17:03:39;100659.38;;;24.45;50.97
76122;BME280;70471;53.200;6.080;2023-07-29T17:08:31;100652.31;;;24.47;51.04
76122;BME280;70471;53.200;6.080;2023-07-29T17:13:22;100652.63;;;24.46;51.36
76122;BME280;70471;53.200;6.080;2023-07-29T17:18:14;100654.47;;;24.42;51.39
76122;BME280;70471;53.200;6.080;2023-07-29T17:23:07;100664.13;;;24.44;51.48
76122;BME280;70471;53.200;6.080;2023-07-29T17:27:58;100660.81;;;24.42;51.48
76122;BME280;70471;53.200;6.080;2023-07-29T17:32:49;100659.53;;;24.48;51.42
76122;BME280;70471;53.200;6.080;2023-07-29T17:37:41;100658.72;;;24.48;51.49
76122;BME280;70471;53.200;6.080;2023-07-29T17:42:34;100667.00;;;24.57;51.22
76122;BME280;70471;53.200;6.080;2023-07-29T17:47:25;100676.31;;;24.61;51.56
76122;BME280;70471;53.200;6.080;2023-07-29T17:52:17;100674.47;;;24.65;51.24
76122;BME280;70471;53.200;6.080;2023-07-29T17:57:08;100677.78;;;24.67;51.60
76122;BME280;70471;53.200;6.080;2023-07-29T18:02:01;100689.72;;;24.67;51.60
76122;BME280;70471;53.200;6.080;2023-07-29T18:06:52;100693.97;;;24.65;51.50
76122;BME280;70471;53.200;6.080;2023-07-29T18:11:44;100700.22;;;24.62;51.48
76122;BME280;70471;53.200;6.080;2023-07-29T18:16:35;100701.06;;;24.62;50.45
76122;BME280;70471;53.200;6.080;2023-07-29T18:21:29;100696.97;;;24.60;49.69
76122;BME280;70471;53.200;6.080;2023-07-29T18:26:22;100697.44;;;24.62;49.54
76122;BME280;70471;53.200;6.080;2023-07-29T18:31:13;100706.97;;;24.61;49.47
76122;BME280;70471;53.200;6.080;2023-07-29T18:36:05;100708.13;;;24.60;49.18
76122;BME280;70471;53.200;6.080;2023-07-29T18:40:58;100705.09;;;24.95;48.50
76122;BME280;70471;53.200;6.080;2023-07-29T18:45:49;100715.03;;;24.83;49.12
76122;BME280;70471;53.200;6.080;2023-07-29T18:50:42;100714.94;;;24.71;48.65
76122;BME280;70471;53.200;6.080;2023-07-29T18:55:34;100727.28;;;24.61;49.00
76122;BME280;70471;53.200;6.080;2023-07-29T19:00:27;100722.25;;;24.55;49.31
76122;BME280;70471;53.200;6.080;2023-07-29T19:05:18;100722.91;;;24.51;49.48
76122;BME280;70471;53.200;6.080;2023-07-29T19:10:10;100715.34;;;24.52;49.31
76122;BME280;70471;53.200;6.080;2023-07-29T19:15:02;100720.13;;;24.51;49.64
76122;BME280;70471;53.200;6.080;2023-07-29T19:19:54;100718.47;;;24.50;50.32
76122;BME280;70471;53.200;6.080;2023-07-29T19:24:46;100724.88;;;24.51;50.80
76122;BME280;70471;53.200;6.080;2023-07-29T19:29:37;100730.78;;;24.49;51.05
76122;BME280;70471;53.200;6.080;2023-07-29T19:34:29;100726.38;;;24.48;50.59
76122;BME280;70471;53.200;6.080;2023-07-29T19:39:21;100733.56;;;24.49;50.71
76122;BME280;70471;53.200;6.080;2023-07-29T19:44:13;100728.00;;;24.49;50.60
76122;BME280;70471;53.200;6.080;2023-07-29T19:49:05;100725.56;;;24.48;50.69
76122;BME280;70471;53.200;6.080;2023-07-29T19:53:57;100728.00;;;24.49;50.68
76122;BME280;70471;53.200;6.080;2023-07-29T19:58:49;100732.41;;;24.50;50.46
76122;BME280;70471;53.200;6.080;2023-07-29T20:03:41;100735.19;;;24.50;50.40
76122;BME280;70471;53.200;6.080;2023-07-29T20:08:33;100735.19;;;24.50;50.34
76122;BME280;70471;53.200;6.080;2023-07-29T20:13:24;100738.44;;;24.52;50.27
76122;BME280;70471;53.200;6.080;2023-07-29T20:18:18;100727.03;;;24.45;50.20
76122;BME280;70471;53.200;6.080;2023-07-29T20:23:11;100737.78;;;24.56;50.36
76122;BME280;70471;53.200;6.080;2023-07-29T20:28:02;100735.66;;;24.52;49.97
76122;BME280;70471;53.200;6.080;2023-07-29T20:32:54;100731.59;;;24.50;50.09
76122;BME280;70471;53.200;6.080;2023-07-29T20:37:47;100730.13;;;24.44;50.09
76122;BME280;70471;53.200;6.080;2023-07-29T20:42:38;100723.56;;;24.40;49.88
76122;BME280;70471;53.200;6.080;2023-07-29T20:47:30;100729.66;;;24.33;49.96
76122;BME280;70471;53.200;6.080;2023-07-29T20:52:21;100728.38;;;24.30;49.92
76122;BME280;70471;53.200;6.080;2023-07-29T20:57:14;100719.84;;;24.27;49.94
76122;BME280;70471;53.200;6.080;2023-07-29T21:02:06;100732.16;;;24.26;49.94
76122;BME280;70471;53.200;6.080;2023-07-29T21:06:57;100728.41;;;24.22;49.95
76122;BME280;70471;53.200;6.080;2023-07-29T21:11:49;100736.28;;;24.20;49.88
76122;BME280;70471;53.200;6.080;2023-07-29T21:16:42;100743.31;;;24.17;49.81
76122;BME280;70471;53.200;6.080;2023-07-29T21:21:34;100737.59;;;24.13;49.73
76122;BME280;70471;53.200;6.080;2023-07-29T21:26:25;100729.91;;;24.10;50.01
76122;BME280;70471;53.200;6.080;2023-07-29T21:31:17;100737.78;;;24.08;49.96
76122;BME280;70471;53.200;6.080;2023-07-29T21:36:09;100735.66;;;24.05;50.05
76122;BME280;70471;53.200;6.080;2023-07-29T21:41:01;100734.34;;;24.03;50.02
76122;BME280;70471;53.200;6.080;2023-07-29T21:45:52;100737.81;;;24.00;49.78
76122;BME280;70471;53.200;6.080;2023-07-29T21:50:44;100740.44;;;23.96;50.24
76122;BME280;70471;53.200;6.080;2023-07-29T21:55:39;100736.19;;;23.90;50.21
76122;BME280;70471;53.200;6.080;2023-07-29T22:00:31;100738.00;;;23.86;50.04
76122;BME280;70471;53.200;6.080;2023-07-29T22:05:23;100737.03;;;23.82;50.38
76122;BME280;70471;53.200;6.080;2023-07-29T22:10:15;100733.56;;;23.76;50.27
76122;BME280;70471;53.200;6.080;2023-07-29T22:15:08;100736.69;;;23.74;50.13
76122;BME280;70471;53.200;6.080;2023-07-29T22:20:00;100738.16;;;23.72;50.32
76122;BME280;70471;53.200;6.080;2023-07-29T22:24:52;100736.38;;;23.67;50.42
76122;BME280;70471;53.200;6.080;2023-07-29T22:29:44;100734.25;;;23.64;50.27
76122;BME280;70471;53.200;6.080;2023-07-29T22:34:37;100747.16;;;23.60;50.21
76122;BME280;70471;53.200;6.080;2023-07-29T22:39:28;100731.13;;;23.57;50.00
76122;BME280;70471;53.200;6.080;2023-07-29T22:44:19;100742.91;;;23.54;49.85
76122;BME280;70471;53.200;6.080;2023-07-29T22:49:11;100741.13;;;23.49;50.17
76122;BME280;70471;53.200;6.080;2023-07-29T22:54:04;100752.06;;;23.46;50.13
76122;BME280;70471;53.200;6.080;2023-07-29T22:58:55;100749.47;;;23.40;50.37
76122;BME280;70471;53.200;6.080;2023-07-29T23:03:49;100755.69;;;23.37;50.32
76122;BME280;70471;53.200;6.080;2023-07-29T23:08:40;100759.13;;;23.34;50.51
76122;BME280;70471;53.200;6.080;2023-07-29T23:13:33;100758.63;;;23.32;50.61
76122;BME280;70471;53.200;6.080;2023-07-29T23:18:24;100753.72;;;23.29;50.53
76122;BME280;70471;53.200;6.080;2023-07-29T23:23:16;100752.72;;;23.25;50.66
76122;BME280;70471;53.200;6.080;2023-07-29T23:28:07;100752.25;;;23.23;50.72
76122;BME280;70471;53.200;6.080;2023-07-29T23:33:00;100742.91;;;23.19;50.76
76122;BME280;70471;53.200;6.080;2023-07-29T23:37:51;100745.53;;;23.15;50.69
76122;BME280;70471;53.200;6.080;2023-07-29T23:42:43;100746.16;;;23.12;50.75
76122;BME280;70471;53.200;6.080;2023-07-29T23:47:34;100743.22;;;23.08;50.73
76122;BME280;70471;53.200;6.080;2023-07-29T23:52:27;100740.75;;;23.07;50.65
76122;BME280;70471;53.200;6.080;2023-07-29T23:57:18;100744.97;;;23.04;50.79
